Time;durP1;ratioP1;P1;durP2;ratioP2;P2;SDS_P1;SDS_P2;PMS_P1;PMS_P2;Temp;Humidity;BMP_temperature;BMP_pressure;BME280_temperature;BME280_humidity;BME280_pressure;Samples;Min_cycle;Max_cycle;Signal;HPM_P1;HPM_P2
2024/01/26 00:01:59;;;;;;;12.35;2.88;;;;;;;;;;5018209;28;20491;-76
2024/01/26 00:04:25;;;;;;;10.98;3.40;;;;;;;;;;5049736;28;20073;-76
2024/01/26 00:06:50;;;;;;;10.38;2.75;;;;;;;;;;5034335;28;20525;-76
2024/01/26 00:09:15;;;;;;;22.45;3.88;;;;;;;;;;5035882;28;20037;-75
2024/01/26 00:11:42;;;;;;;18.55;3.38;;;;;;;;;;5049864;28;20052;-75
2024/01/26 00:14:08;;;;;;;11.70;3.22;;;;;;;;;;5030091;28;20072;-76
2024/01/26 00:16:35;;;;;;;14.25;3.50;;;;;;;;;;5011458;28;20041;-76
2024/01/26 00:19:00;;;;;;;12.20;3.05;;;;;;;;;;5033949;28;20082;-76
2024/01/26 00:21:26;;;;;;;16.58;3.65;;;;;;;;;;5020477;28;20049;-76
2024/01/26 00:23:52;;;;;;;13.23;4.15;;;;;;;;;;5023346;28;20043;-76
2024/01/26 00:26:17;;;;;;;18.85;3.67;;;;;;;;;;5014295;28;20076;-76
2024/01/26 00:28:42;;;;;;;17.63;3.97;;;;;;;;;;5018841;28;20074;-76
2024/01/26 00:31:13;;;;;;;13.90;3.40;;;;;;;;;;5025565;28;20029;-76
2024/01/26 00:33:38;;;;;;;15.57;3.63;;;;;;;;;;5052399;28;20040;-76
2024/01/26 00:36:04;;;;;;;16.40;3.70;;;;;;;;;;5048436;28;20040;-76
2024/01/26 00:38:29;;;;;;;12.48;3.22;;;;;;;;;;5040386;28;20151;-76
2024/01/26 00:40:55;;;;;;;16.20;3.40;;;;;;;;;;5040185;28;20036;-76
2024/01/26 00:43:20;;;;;;;12.77;3.50;;;;;;;;;;5047733;28;20040;-76
2024/01/26 00:45:45;;;;;;;13.43;3.30;;;;;;;;;;5035081;28;20038;-76
2024/01/26 00:48:11;;;;;;;15.82;3.70;;;;;;;;;;5045233;28;20040;-76
2024/01/26 00:50:36;;;;;;;14.82;4.07;;;;;;;;;;5036321;28;20048;-76
2024/01/26 00:53:02;;;;;;;14.60;3.63;;;;;;;;;;5038349;28;20062;-76
2024/01/26 00:55:29;;;;;;;4.82;1.90;;;;;;;;;;5050853;28;20626;-76
2024/01/26 00:57:55;;;;;;;14.07;4.47;;;;;;;;;;5047019;28;20039;-76
2024/01/26 01:00:21;;;;;;;12.95;3.60;;;;;;;;;;5038624;28;20071;-76
2024/01/26 01:02:47;;;;;;;16.95;3.88;;;;;;;;;;5036739;28;20536;-75
2024/01/26 01:05:13;;;;;;;13.68;4.28;;;;;;;;;;5050674;28;20056;-76
2024/01/26 01:07:38;;;;;;;16.48;4.38;;;;;;;;;;5045975;28;20111;-77
2024/01/26 01:10:05;;;;;;;12.10;3.95;;;;;;;;;;5030661;28;20044;-76
2024/01/26 01:12:30;;;;;;;13.52;3.88;;;;;;;;;;5025535;28;20061;-76
2024/01/26 01:14:58;;;;;;;16.35;3.90;;;;;;;;;;5041050;28;20071;-76
2024/01/26 01:17:24;;;;;;;12.85;3.67;;;;;;;;;;5031675;28;20588;-75
2024/01/26 01:19:50;;;;;;;20.02;4.30;;;;;;;;;;5047924;28;20460;-76
2024/01/26 01:22:15;;;;;;;10.18;3.67;;;;;;;;;;5031802;28;20041;-76
2024/01/26 01:24:41;;;;;;;15.55;3.80;;;;;;;;;;5027414;28;20036;-76
2024/01/26 01:27:06;;;;;;;6.57;2.20;;;;;;;;;;5036416;28;20408;-76
2024/01/26 01:29:31;;;;;;;6.15;2.15;;;;;;;;;;5044899;28;20199;-76
2024/01/26 01:31:57;;;;;;;18.70;4.38;;;;;;;;;;5042904;28;20698;-75
2024/01/26 01:34:23;;;;;;;15.60;4.35;;;;;;;;;;5035746;28;20041;-76
2024/01/26 01:36:48;;;;;;;18.25;3.67;;;;;;;;;;5039741;28;20043;-76
2024/01/26 01:39:14;;;;;;;16.30;4.22;;;;;;;;;;5041059;28;20033;-76
2024/01/26 01:41:39;;;;;;;13.48;3.38;;;;;;;;;;5039492;28;20040;-76
2024/01/26 01:44:05;;;;;;;9.68;3.17;;;;;;;;;;5049115;28;20033;-76
2024/01/26 01:46:31;;;;;;;10.13;2.88;;;;;;;;;;5030720;28;20397;-76
2024/01/26 01:48:56;;;;;;;8.80;3.40;;;;;;;;;;5040135;28;20056;-76
2024/01/26 01:51:22;;;;;;;14.02;3.83;;;;;;;;;;5030483;28;20071;-76
2024/01/26 01:53:48;;;;;;;10.27;3.95;;;;;;;;;;5043910;28;20128;-76
2024/01/26 01:56:15;;;;;;;14.32;3.70;;;;;;;;;;5032159;28;20036;-76
2024/01/26 01:58:41;;;;;;;13.10;3.22;;;;;;;;;;5046041;28;20041;-77
2024/01/26 02:01:07;;;;;;;11.02;3.63;;;;;;;;;;5045347;28;20033;-76
2024/01/26 02:03:33;;;;;;;12.52;4.18;;;;;;;;;;5050390;28;20696;-76
2024/01/26 02:05:58;;;;;;;11.70;3.08;;;;;;;;;;5050788;28;20139;-76
2024/01/26 02:08:24;;;;;;;11.93;4.13;;;;;;;;;;5029384;28;20044;-76
2024/01/26 02:10:49;;;;;;;16.27;4.65;;;;;;;;;;5037280;28;20032;-76
2024/01/26 02:13:14;;;;;;;20.77;5.03;;;;;;;;;;5034834;28;20043;-76
2024/01/26 02:15:40;;;;;;;21.23;4.70;;;;;;;;;;5040616;28;20072;-76
2024/01/26 02:18:05;;;;;;;12.20;3.60;;;;;;;;;;5035903;28;20061;-76
2024/01/26 02:20:31;;;;;;;9.52;3.13;;;;;;;;;;5023803;28;20053;-76
2024/01/26 02:22:56;;;;;;;6.85;2.40;;;;;;;;;;5032175;28;20116;-76
2024/01/26 02:25:22;;;;;;;9.77;2.95;;;;;;;;;;5009806;28;20043;-76
2024/01/26 02:27:47;;;;;;;7.30;2.60;;;;;;;;;;5037238;28;20909;-76
2024/01/26 02:30:13;;;;;;;6.50;2.17;;;;;;;;;;5023297;28;20398;-75
2024/01/26 02:32:38;;;;;;;8.95;2.88;;;;;;;;;;5034642;28;20064;-75
2024/01/26 02:35:04;;;;;;;9.10;3.15;;;;;;;;;;5021272;28;20052;-76
2024/01/26 02:37:29;;;;;;;14.70;4.10;;;;;;;;;;5025200;28;20048;-75
2024/01/26 02:39:55;;;;;;;9.90;2.88;;;;;;;;;;5026809;28;20037;-76
2024/01/26 02:42:21;;;;;;;8.77;3.67;;;;;;;;;;5016877;28;20033;-76
2024/01/26 02:44:46;;;;;;;14.70;3.35;;;;;;;;;;5034401;28;20029;-76
2024/01/26 02:47:11;;;;;;;12.25;3.70;;;;;;;;;;5034844;28;20382;-76
2024/01/26 02:49:39;;;;;;;10.30;3.28;;;;;;;;;;5033404;28;20033;-76
2024/01/26 02:52:05;;;;;;;12.18;3.42;;;;;;;;;;5034459;28;20033;-77
2024/01/26 02:54:30;;;;;;;10.45;3.05;;;;;;;;;;5032578;28;20037;-75
2024/01/26 02:56:56;;;;;;;4.78;2.35;;;;;;;;;;5021087;28;20694;-76
2024/01/26 02:59:22;;;;;;;13.35;4.25;;;;;;;;;;5038564;28;20047;-76
2024/01/26 03:01:47;;;;;;;9.13;3.33;;;;;;;;;;5031056;28;20612;-76
2024/01/26 03:04:13;;;;;;;5.97;2.83;;;;;;;;;;5027491;28;20037;-76
2024/01/26 03:06:38;;;;;;;7.40;2.72;;;;;;;;;;5029480;28;20432;-76
2024/01/26 03:09:03;;;;;;;12.07;3.38;;;;;;;;;;5028208;28;20121;-76
2024/01/26 03:11:37;;;;;;;3.35;1.80;;;;;;;;;;5032628;28;20042;-76
2024/01/26 03:14:03;;;;;;;10.05;3.20;;;;;;;;;;5025882;28;20042;-76
2024/01/26 03:16:28;;;;;;;10.88;3.50;;;;;;;;;;5031817;28;20141;-76
2024/01/26 03:18:53;;;;;;;11.65;4.35;;;;;;;;;;5025445;28;20041;-76
2024/01/26 03:21:19;;;;;;;11.63;4.13;;;;;;;;;;5027611;28;20127;-76
2024/01/26 03:23:44;;;;;;;7.43;2.90;;;;;;;;;;5017643;28;20120;-77
2024/01/26 03:26:09;;;;;;;10.45;3.00;;;;;;;;;;5023738;28;20044;-76
2024/01/26 03:28:35;;;;;;;7.15;2.70;;;;;;;;;;5038275;28;20041;-75
2024/01/26 03:31:00;;;;;;;9.95;4.05;;;;;;;;;;5032428;28;20037;-75
2024/01/26 03:33:25;;;;;;;6.47;2.15;;;;;;;;;;5025291;28;20045;-75
2024/01/26 03:35:51;;;;;;;6.30;2.97;;;;;;;;;;5030092;28;20041;-76
2024/01/26 03:38:16;;;;;;;4.63;1.73;;;;;;;;;;5032482;28;20045;-75
2024/01/26 03:40:42;;;;;;;9.45;3.05;;;;;;;;;;5044092;28;20086;-75
2024/01/26 03:43:07;;;;;;;6.63;2.25;;;;;;;;;;5042549;28;20460;-76
2024/01/26 03:45:32;;;;;;;10.70;4.40;;;;;;;;;;5028599;28;20056;-76
2024/01/26 03:47:58;;;;;;;11.18;3.03;;;;;;;;;;5029520;28;20041;-76
2024/01/26 03:50:23;;;;;;;11.35;3.05;;;;;;;;;;5035499;28;20041;-76
2024/01/26 03:52:48;;;;;;;5.38;2.47;;;;;;;;;;5019829;28;20030;-76
2024/01/26 03:55:14;;;;;;;9.82;3.33;;;;;;;;;;5035915;28;20371;-76
2024/01/26 03:57:39;;;;;;;8.35;3.03;;;;;;;;;;5009579;28;20109;-76
2024/01/26 04:00:05;;;;;;;7.95;4.15;;;;;;;;;;5026971;28;20802;-77
2024/01/26 04:02:30;;;;;;;16.13;4.30;;;;;;;;;;5038589;28;20650;-75
2024/01/26 04:04:56;;;;;;;7.85;4.00;;;;;;;;;;5032364;28;20095;-76
2024/01/26 04:07:21;;;;;;;7.38;2.63;;;;;;;;;;5018625;28;20044;-76
2024/01/26 04:09:47;;;;;;;7.72;3.45;;;;;;;;;;5035456;28;20037;-76
2024/01/26 04:12:12;;;;;;;6.57;3.13;;;;;;;;;;5035623;28;20036;-74
2024/01/26 04:14:37;;;;;;;11.73;4.10;;;;;;;;;;5032546;28;20029;-74
2024/01/26 04:17:03;;;;;;;10.50;4.47;;;;;;;;;;5037364;28;20532;-75
2024/01/26 04:19:28;;;;;;;6.40;2.75;;;;;;;;;;5035174;28;20673;-75
2024/01/26 04:21:53;;;;;;;10.13;3.42;;;;;;;;;;5021840;28;20034;-75
2024/01/26 04:24:19;;;;;;;5.32;3.13;;;;;;;;;;5039482;28;20043;-74
2024/01/26 04:26:45;;;;;;;10.73;3.90;;;;;;;;;;5039516;28;20029;-75
2024/01/26 04:29:10;;;;;;;7.25;3.28;;;;;;;;;;5022369;28;20124;-75
2024/01/26 04:31:42;;;;;;;12.32;4.65;;;;;;;;;;5016035;28;20044;-75
2024/01/26 04:34:07;;;;;;;7.95;3.30;;;;;;;;;;5033998;28;20099;-75
2024/01/26 04:36:33;;;;;;;5.82;2.80;;;;;;;;;;5027074;28;20037;-75
2024/01/26 04:39:01;;;;;;;4.45;2.75;;;;;;;;;;5036820;28;20029;-75
2024/01/26 04:41:26;;;;;;;7.78;3.60;;;;;;;;;;5034882;28;20045;-75
2024/01/26 04:43:51;;;;;;;9.30;3.05;;;;;;;;;;5027320;28;20729;-75
2024/01/26 04:46:17;;;;;;;7.20;4.00;;;;;;;;;;5022641;28;20113;-75
2024/01/26 04:48:42;;;;;;;6.68;3.25;;;;;;;;;;5031121;28;20041;-75
2024/01/26 04:51:07;;;;;;;9.25;3.50;;;;;;;;;;5006258;28;20124;-75
2024/01/26 04:53:33;;;;;;;7.80;4.10;;;;;;;;;;5016278;28;20056;-75
2024/01/26 04:55:58;;;;;;;7.15;3.80;;;;;;;;;;5037347;28;20041;-75
2024/01/26 04:58:24;;;;;;;6.53;3.72;;;;;;;;;;5019725;28;20036;-75
2024/01/26 05:00:49;;;;;;;5.75;2.85;;;;;;;;;;5035582;28;20513;-76
2024/01/26 05:03:15;;;;;;;7.93;3.60;;;;;;;;;;5034653;28;20025;-75
2024/01/26 05:05:40;;;;;;;6.03;3.13;;;;;;;;;;5023136;28;20119;-75
2024/01/26 05:08:06;;;;;;;5.32;3.05;;;;;;;;;;5035052;28;20040;-75
2024/01/26 05:10:31;;;;;;;6.25;4.10;;;;;;;;;;5028262;28;20037;-75
2024/01/26 05:12:57;;;;;;;5.05;3.20;;;;;;;;;;5034672;28;20051;-75
2024/01/26 05:15:22;;;;;;;6.03;2.35;;;;;;;;;;5028700;28;20047;-75
2024/01/26 05:17:48;;;;;;;6.60;2.67;;;;;;;;;;5051457;28;20047;-75
2024/01/26 05:20:13;;;;;;;6.93;3.80;;;;;;;;;;5019615;28;20041;-75
2024/01/26 05:22:38;;;;;;;5.00;3.60;;;;;;;;;;5029523;28;20086;-75
2024/01/26 05:25:04;;;;;;;6.13;3.50;;;;;;;;;;5031155;28;20490;-75
2024/01/26 05:27:30;;;;;;;10.00;4.93;;;;;;;;;;5026986;28;20040;-75
2024/01/26 05:29:56;;;;;;;5.93;2.97;;;;;;;;;;5033208;28;20036;-75
2024/01/26 05:32:22;;;;;;;8.73;4.47;;;;;;;;;;5028684;28;20040;-75
2024/01/26 05:34:47;;;;;;;9.23;3.70;;;;;;;;;;5025372;28;20107;-76
2024/01/26 05:37:13;;;;;;;6.07;4.00;;;;;;;;;;5031121;28;20045;-75
2024/01/26 05:39:38;;;;;;;7.13;3.45;;;;;;;;;;5031718;28;20048;-75
2024/01/26 05:42:04;;;;;;;5.00;3.63;;;;;;;;;;5015503;28;20041;-75
2024/01/26 05:44:29;;;;;;;7.97;4.35;;;;;;;;;;5031089;28;20091;-75
2024/01/26 05:46:57;;;;;;;3.83;2.92;;;;;;;;;;5030968;28;20132;-75
2024/01/26 05:49:25;;;;;;;6.60;3.75;;;;;;;;;;5005032;28;20111;-76
2024/01/26 05:51:51;;;;;;;6.90;3.92;;;;;;;;;;5031670;28;20082;-75
2024/01/26 05:54:16;;;;;;;6.95;4.43;;;;;;;;;;5030360;28;20045;-76
2024/01/26 05:56:42;;;;;;;4.50;2.67;;;;;;;;;;5031219;28;20404;-75
2024/01/26 05:59:07;;;;;;;7.15;4.03;;;;;;;;;;5022067;28;20045;-75
2024/01/26 06:01:33;;;;;;;6.32;3.38;;;;;;;;;;5009875;28;20037;-75
2024/01/26 06:04:01;;;;;;;3.42;2.13;;;;;;;;;;5019331;28;20046;-75
2024/01/26 06:06:26;;;;;;;4.75;3.13;;;;;;;;;;5020301;28;20045;-75
2024/01/26 06:08:52;;;;;;;7.03;4.13;;;;;;;;;;5023472;28;20037;-75
2024/01/26 06:11:18;;;;;;;6.28;3.88;;;;;;;;;;5015470;28;20049;-74
2024/01/26 06:13:44;;;;;;;3.80;2.95;;;;;;;;;;5025255;28;20076;-73
2024/01/26 06:16:15;;;;;;;5.80;2.85;;;;;;;;;;5024810;28;20421;-75
2024/01/26 06:18:43;;;;;;;6.05;3.65;;;;;;;;;;5032165;28;20047;-75
2024/01/26 06:21:09;;;;;;;5.18;2.95;;;;;;;;;;5028408;28;20033;-75
2024/01/26 06:23:35;;;;;;;3.33;1.88;;;;;;;;;;5027204;28;20471;-74
2024/01/26 06:26:01;;;;;;;4.53;2.28;;;;;;;;;;5027936;28;20041;-75
2024/01/26 06:28:26;;;;;;;4.22;3.15;;;;;;;;;;5041946;28;20044;-74
2024/01/26 06:30:51;;;;;;;7.00;4.82;;;;;;;;;;5012826;28;20422;-74
2024/01/26 06:33:17;;;;;;;7.22;3.88;;;;;;;;;;5044743;28;20124;-74
2024/01/26 06:35:42;;;;;;;6.07;3.95;;;;;;;;;;5024991;28;20037;-74
2024/01/26 06:38:08;;;;;;;8.13;3.97;;;;;;;;;;5034121;28;20650;-74
2024/01/26 06:40:33;;;;;;;9.23;5.05;;;;;;;;;;5043913;28;20060;-75
2024/01/26 06:43:05;;;;;;;6.88;4.18;;;;;;;;;;5036539;28;20614;-75
2024/01/26 06:45:30;;;;;;;4.97;2.90;;;;;;;;;;5011434;28;20106;-74
2024/01/26 06:47:55;;;;;;;5.85;3.80;;;;;;;;;;5039829;28;20041;-75
2024/01/26 06:50:21;;;;;;;6.30;3.22;;;;;;;;;;5040217;28;20113;-74
2024/01/26 06:52:46;;;;;;;9.48;5.57;;;;;;;;;;5034631;28;20041;-75
2024/01/26 06:55:11;;;;;;;5.95;3.58;;;;;;;;;;5031666;28;20098;-75
2024/01/26 06:57:37;;;;;;;8.85;5.45;;;;;;;;;;5039860;28;20036;-75
2024/01/26 07:00:03;;;;;;;9.35;5.25;;;;;;;;;;5033863;28;20053;-75
2024/01/26 07:02:28;;;;;;;9.85;5.38;;;;;;;;;;5047776;28;20147;-75
2024/01/26 07:04:54;;;;;;;4.13;3.03;;;;;;;;;;5041495;28;20119;-75
2024/01/26 07:07:19;;;;;;;3.67;2.85;;;;;;;;;;5032718;28;20561;-75
2024/01/26 07:09:45;;;;;;;7.80;4.95;;;;;;;;;;5033493;28;20033;-75
2024/01/26 07:12:10;;;;;;;6.30;3.60;;;;;;;;;;5041208;28;20123;-75
2024/01/26 07:14:35;;;;;;;8.90;5.20;;;;;;;;;;5019332;28;20053;-75
2024/01/26 07:17:01;;;;;;;9.50;5.60;;;;;;;;;;5038820;28;20382;-75
2024/01/26 07:19:26;;;;;;;9.77;5.60;;;;;;;;;;5043710;28;20118;-75
2024/01/26 07:21:51;;;;;;;10.75;4.65;;;;;;;;;;5038186;28;20041;-75
2024/01/26 07:24:17;;;;;;;8.75;5.15;;;;;;;;;;5051671;28;20051;-75
2024/01/26 07:26:43;;;;;;;7.57;4.32;;;;;;;;;;5035262;28;20025;-76
2024/01/26 07:29:08;;;;;;;7.65;4.88;;;;;;;;;;5013380;28;20053;-75
2024/01/26 07:31:33;;;;;;;4.82;3.38;;;;;;;;;;5047219;28;20091;-75
2024/01/26 07:33:59;;;;;;;7.57;4.63;;;;;;;;;;5031807;28;20080;-75
2024/01/26 07:36:24;;;;;;;9.40;5.03;;;;;;;;;;5042800;28;20051;-75
2024/01/26 07:38:50;;;;;;;5.57;3.65;;;;;;;;;;5035038;28;20482;-75
2024/01/26 07:41:15;;;;;;;8.23;5.85;;;;;;;;;;5038101;28;20048;-75
2024/01/26 07:43:40;;;;;;;9.07;4.40;;;;;;;;;;5036354;28;20256;-75
2024/01/26 07:46:06;;;;;;;8.80;4.55;;;;;;;;;;5012729;28;20045;-75
2024/01/26 07:48:31;;;;;;;10.25;5.60;;;;;;;;;;5028860;28;20072;-75
2024/01/26 07:50:57;;;;;;;12.45;7.47;;;;;;;;;;5031667;28;20033;-75
2024/01/26 07:53:22;;;;;;;8.13;4.78;;;;;;;;;;5012194;28;20040;-75
2024/01/26 07:55:47;;;;;;;9.45;4.90;;;;;;;;;;5030037;28;20464;-75
2024/01/26 07:58:13;;;;;;;8.10;3.80;;;;;;;;;;5019091;28;20053;-75
2024/01/26 08:00:38;;;;;;;11.32;5.53;;;;;;;;;;5042066;28;20045;-75
2024/01/26 08:03:03;;;;;;;7.95;4.63;;;;;;;;;;5034935;28;20044;-75
2024/01/26 08:05:29;;;;;;;8.52;4.90;;;;;;;;;;5028511;28;20037;-75
2024/01/26 08:07:54;;;;;;;9.55;5.43;;;;;;;;;;5034030;28;20071;-75
2024/01/26 08:10:20;;;;;;;10.77;6.07;;;;;;;;;;5029356;28;20029;-75
2024/01/26 08:12:45;;;;;;;10.82;5.90;;;;;;;;;;5023914;28;20847;-75
2024/01/26 08:15:11;;;;;;;3.67;2.28;;;;;;;;;;5033367;28;20436;-76
2024/01/26 08:17:37;;;;;;;8.50;5.13;;;;;;;;;;5028324;28;20053;-75
2024/01/26 08:20:03;;;;;;;9.43;5.10;;;;;;;;;;5024620;28;20037;-75
2024/01/26 08:22:29;;;;;;;4.05;3.03;;;;;;;;;;5037457;28;20033;-75
2024/01/26 08:24:58;;;;;;;9.10;4.35;;;;;;;;;;5031926;28;20413;-75
2024/01/26 08:27:24;;;;;;;7.35;4.80;;;;;;;;;;5005610;28;20117;-75
2024/01/26 08:29:49;;;;;;;8.63;4.90;;;;;;;;;;5040633;28;20115;-75
2024/01/26 08:32:15;;;;;;;8.20;5.03;;;;;;;;;;5033279;28;20123;-75
2024/01/26 08:34:40;;;;;;;9.32;5.03;;;;;;;;;;5031629;28;20032;-75
2024/01/26 08:37:05;;;;;;;9.75;6.00;;;;;;;;;;5028685;28;20037;-75
2024/01/26 08:39:31;;;;;;;6.38;3.85;;;;;;;;;;5025656;28;20139;-75
2024/01/26 08:41:56;;;;;;;8.43;4.80;;;;;;;;;;5022765;28;20061;-75
2024/01/26 08:44:22;;;;;;;7.20;4.50;;;;;;;;;;5034959;28;20040;-75
2024/01/26 08:46:47;;;;;;;5.47;3.30;;;;;;;;;;5042962;28;20071;-75
2024/01/26 08:49:13;;;;;;;9.15;4.43;;;;;;;;;;5022926;28;20048;-75
2024/01/26 08:51:38;;;;;;;1.83;1.45;;;;;;;;;;5017678;28;20078;-75
2024/01/26 08:54:03;;;;;;;3.38;2.28;;;;;;;;;;5036012;28;20080;-75
2024/01/26 08:56:30;;;;;;;6.47;3.55;;;;;;;;;;5011396;28;20161;-75
2024/01/26 08:58:55;;;;;;;4.88;3.10;;;;;;;;;;5026108;28;20033;-76
2024/01/26 09:01:22;;;;;;;5.15;3.28;;;;;;;;;;5026005;28;20056;-75
2024/01/26 09:03:47;;;;;;;4.55;3.47;;;;;;;;;;5024148;28;20049;-76
2024/01/26 09:06:13;;;;;;;3.67;2.35;;;;;;;;;;5032335;28;20036;-75
2024/01/26 09:08:39;;;;;;;5.75;3.60;;;;;;;;;;5020333;28;20641;-75
2024/01/26 09:11:04;;;;;;;5.38;3.10;;;;;;;;;;5024204;28;20053;-75
2024/01/26 09:13:30;;;;;;;4.60;3.03;;;;;;;;;;5026897;28;20572;-76
2024/01/26 09:15:55;;;;;;;3.67;2.22;;;;;;;;;;5020819;28;20041;-75
2024/01/26 09:18:22;;;;;;;2.08;1.80;;;;;;;;;;5007960;28;20040;-75
2024/01/26 09:20:49;;;;;;;3.47;2.17;;;;;;;;;;5027077;28;20409;-75
2024/01/26 09:23:15;;;;;;;3.20;2.40;;;;;;;;;;5016449;28;20511;-75
2024/01/26 09:25:40;;;;;;;2.63;2.20;;;;;;;;;;5019191;28;20120;-75
2024/01/26 09:28:06;;;;;;;2.47;1.65;;;;;;;;;;5027707;28;20043;-75
2024/01/26 09:30:32;;;;;;;3.08;2.30;;;;;;;;;;5025969;28;20037;-75
2024/01/26 09:32:58;;;;;;;3.08;1.92;;;;;;;;;;5026056;28;20042;-75
2024/01/26 09:35:23;;;;;;;3.15;1.92;;;;;;;;;;5033648;28;20054;-75
2024/01/26 09:37:49;;;;;;;1.73;1.42;;;;;;;;;;5009950;28;20504;-75
2024/01/26 09:40:15;;;;;;;2.13;1.73;;;;;;;;;;5039160;28;20037;-74
2024/01/26 09:42:40;;;;;;;2.40;1.55;;;;;;;;;;5026843;28;20028;-75
2024/01/26 09:45:07;;;;;;;1.83;1.13;;;;;;;;;;5029628;28;20104;-74
2024/01/26 09:47:35;;;;;;;4.00;2.40;;;;;;;;;;5039019;28;20095;-75
2024/01/26 09:50:04;;;;;;;3.17;2.28;;;;;;;;;;5030918;28;20076;-75
2024/01/26 09:52:30;;;;;;;2.53;1.73;;;;;;;;;;5013744;28;20067;-75
2024/01/26 09:54:56;;;;;;;1.67;1.40;;;;;;;;;;5029699;28;20030;-75
2024/01/26 09:57:22;;;;;;;2.25;1.65;;;;;;;;;;5027683;28;20036;-74
2024/01/26 09:59:50;;;;;;;2.38;1.67;;;;;;;;;;5020539;28;20041;-75
2024/01/26 10:02:17;;;;;;;2.63;2.22;;;;;;;;;;5037695;28;20086;-75
2024/01/26 10:04:43;;;;;;;3.60;2.05;;;;;;;;;;5038601;28;20128;-75
2024/01/26 10:07:08;;;;;;;4.30;2.60;;;;;;;;;;5019304;28;20132;-75
2024/01/26 10:09:35;;;;;;;1.60;1.05;;;;;;;;;;5031311;28;20105;-75
2024/01/26 10:12:01;;;;;;;3.15;2.50;;;;;;;;;;5029686;28;20115;-75
2024/01/26 10:14:26;;;;;;;4.15;2.47;;;;;;;;;;5033270;28;20061;-75
2024/01/26 10:16:59;;;;;;;3.85;2.05;;;;;;;;;;5020278;28;20477;-75
2024/01/26 10:19:25;;;;;;;2.38;2.17;;;;;;;;;;5007296;28;20040;-75
2024/01/26 10:21:52;;;;;;;4.05;2.58;;;;;;;;;;5010266;28;20082;-74
2024/01/26 10:24:22;;;;;;;3.10;1.95;;;;;;;;;;5040883;28;20246;-75
2024/01/26 10:26:47;;;;;;;2.13;1.40;;;;;;;;;;5042143;28;20041;-75
2024/01/26 10:29:13;;;;;;;4.97;3.42;;;;;;;;;;5040869;28;20750;-75
2024/01/26 10:31:41;;;;;;;2.67;1.85;;;;;;;;;;5040763;28;20106;-75
2024/01/26 10:34:15;;;;;;;3.05;2.65;;;;;;;;;;5033602;28;20095;-75
2024/01/26 10:36:43;;;;;;;2.60;2.00;;;;;;;;;;5036575;28;20409;-75
2024/01/26 10:39:23;;;;;;;2.13;1.52;;;;;;;;;;5026794;28;20069;-75
2024/01/26 10:41:52;;;;;;;1.55;1.30;;;;;;;;;;5028316;28;20045;-75
2024/01/26 10:44:18;;;;;;;1.63;1.05;;;;;;;;;;5015156;28;20503;-75
2024/01/26 10:46:44;;;;;;;2.72;1.90;;;;;;;;;;5035306;28;20047;-74
2024/01/26 10:49:11;;;;;;;2.60;1.60;;;;;;;;;;5024597;28;20095;-75
2024/01/26 10:51:37;;;;;;;1.10;1.00;;;;;;;;;;5013909;28;20728;-74
2024/01/26 10:54:09;;;;;;;1.88;1.58;;;;;;;;;;5029444;28;20153;-75
2024/01/26 10:56:34;;;;;;;1.50;1.25;;;;;;;;;;5030612;28;20041;-75
2024/01/26 10:59:00;;;;;;;2.65;2.45;;;;;;;;;;5021554;28;20037;-75
2024/01/26 11:01:27;;;;;;;0.93;0.90;;;;;;;;;;5024832;28;20104;-75
2024/01/26 11:03:56;;;;;;;1.02;0.95;;;;;;;;;;5035726;28;20529;-75
2024/01/26 11:06:21;;;;;;;0.43;0.43;;;;;;;;;;5035689;28;20056;-75
2024/01/26 11:08:47;;;;;;;1.20;1.10;;;;;;;;;;5019035;28;20452;-75
2024/01/26 11:11:15;;;;;;;1.77;1.50;;;;;;;;;;5032866;28;20037;-75
2024/01/26 11:13:40;;;;;;;1.08;0.98;;;;;;;;;;5006877;28;20496;-75
2024/01/26 11:16:07;;;;;;;0.85;0.85;;;;;;;;;;5032379;28;20098;-75
2024/01/26 11:18:35;;;;;;;1.23;1.13;;;;;;;;;;5027321;28;20060;-75
2024/01/26 11:21:02;;;;;;;1.45;1.23;;;;;;;;;;5033271;28;20501;-75
2024/01/26 11:23:44;;;;;;;1.63;1.30;;;;;;;;;;5035978;28;20037;-75
2024/01/26 11:26:14;;;;;;;2.08;1.15;;;;;;;;;;5020315;28;20225;-75
2024/01/26 11:28:40;;;;;;;1.40;1.02;;;;;;;;;;5035761;28;20037;-75
2024/01/26 11:31:05;;;;;;;4.50;1.50;;;;;;;;;;5031459;28;20083;-75
2024/01/26 11:33:39;;;;;;;2.72;1.90;;;;;;;;;;5036378;28;20128;-75
2024/01/26 11:36:05;;;;;;;1.15;0.60;;;;;;;;;;5026234;28;20044;-75
2024/01/26 11:38:34;;;;;;;3.65;1.23;;;;;;;;;;5030241;28;20052;-75
2024/01/26 11:41:01;;;;;;;0.85;0.80;;;;;;;;;;5027192;28;20041;-75
2024/01/26 11:43:27;;;;;;;4.85;3.20;;;;;;;;;;5029319;28;20068;-75
2024/01/26 11:45:55;;;;;;;2.28;1.70;;;;;;;;;;5021585;28;20037;-75
2024/01/26 11:48:21;;;;;;;0.77;0.77;;;;;;;;;;5041235;28;20456;-75
2024/01/26 11:50:47;;;;;;;19.20;10.85;;;;;;;;;;5026150;28;20037;-75
2024/01/26 11:53:14;;;;;;;3.22;1.88;;;;;;;;;;5029220;28;20047;-75
2024/01/26 11:55:41;;;;;;;1.50;0.82;;;;;;;;;;5030102;28;20061;-75
2024/01/26 11:58:08;;;;;;;0.90;0.80;;;;;;;;;;5032063;28;20116;-75
2024/01/26 12:00:35;;;;;;;11.27;6.53;;;;;;;;;;5036456;28;20033;-75
2024/01/26 12:03:05;;;;;;;3.28;1.60;;;;;;;;;;5024045;28;20037;-74
2024/01/26 12:05:36;;;;;;;2.22;1.48;;;;;;;;;;5040076;28;20463;-75
2024/01/26 12:08:05;;;;;;;1.58;1.20;;;;;;;;;;5020193;28;20168;-75
2024/01/26 12:10:32;;;;;;;0.60;0.60;;;;;;;;;;5013456;28;20041;-75
2024/01/26 12:12:58;;;;;;;2.00;1.25;;;;;;;;;;5020706;28;20068;-75
2024/01/26 12:15:29;;;;;;;1.48;0.80;;;;;;;;;;5030196;28;20049;-75
2024/01/26 12:17:57;;;;;;;1.17;1.08;;;;;;;;;;5023546;28;20436;-75
2024/01/26 12:20:22;;;;;;;1.13;1.00;;;;;;;;;;5021901;28;20745;-74
2024/01/26 12:22:48;;;;;;;1.30;1.15;;;;;;;;;;5040644;28;20123;-75
2024/01/26 12:25:14;;;;;;;1.08;0.80;;;;;;;;;;5036767;28;20040;-75
2024/01/26 12:27:41;;;;;;;0.70;0.70;;;;;;;;;;5035992;28;20136;-75
2024/01/26 12:30:09;;;;;;;0.70;0.70;;;;;;;;;;5028409;28;20068;-75
2024/01/26 12:32:37;;;;;;;0.80;0.80;;;;;;;;;;5039700;28;20072;-75
2024/01/26 12:35:03;;;;;;;1.33;1.00;;;;;;;;;;5025954;28;20041;-75
2024/01/26 12:37:28;;;;;;;2.08;1.88;;;;;;;;;;5043470;28;20401;-75
2024/01/26 12:39:53;;;;;;;1.40;0.70;;;;;;;;;;5040146;28;20041;-74
2024/01/26 12:42:19;;;;;;;0.90;0.80;;;;;;;;;;5036632;28;20040;-75
2024/01/26 12:44:44;;;;;;;1.55;0.80;;;;;;;;;;5040363;28;20521;-75
2024/01/26 12:47:09;;;;;;;1.23;0.93;;;;;;;;;;5034772;28;20569;-75
2024/01/26 12:49:35;;;;;;;0.70;0.50;;;;;;;;;;5023234;28;20057;-75
2024/01/26 12:52:00;;;;;;;0.70;0.70;;;;;;;;;;5026653;28;20130;-75
2024/01/26 12:54:26;;;;;;;0.75;0.75;;;;;;;;;;5019345;28;20132;-75
2024/01/26 12:56:51;;;;;;;1.30;0.77;;;;;;;;;;5031049;28;20494;-74
2024/01/26 12:59:17;;;;;;;1.67;0.70;;;;;;;;;;5035067;28;20131;-75
2024/01/26 13:01:43;;;;;;;0.45;0.40;;;;;;;;;;5029495;28;20051;-75
2024/01/26 13:04:08;;;;;;;5.30;2.00;;;;;;;;;;5031838;28;20497;-75
2024/01/26 13:06:35;;;;;;;1.75;1.00;;;;;;;;;;5028369;28;20036;-75
2024/01/26 13:09:00;;;;;;;1.67;0.70;;;;;;;;;;5025277;28;20036;-75
2024/01/26 13:11:27;;;;;;;0.98;0.57;;;;;;;;;;5020463;28;20041;-75
2024/01/26 13:13:52;;;;;;;0.50;0.50;;;;;;;;;;5024668;28;20037;-75
2024/01/26 13:16:18;;;;;;;0.70;0.50;;;;;;;;;;5032613;28;20044;-75
2024/01/26 13:18:45;;;;;;;0.57;0.57;;;;;;;;;;5022070;28;21097;-75
2024/01/26 13:21:14;;;;;;;1.17;0.60;;;;;;;;;;5032831;28;20033;-75
2024/01/26 13:23:40;;;;;;;1.20;0.40;;;;;;;;;;5033975;28;20045;-75
2024/01/26 13:26:05;;;;;;;1.20;0.45;;;;;;;;;;5041366;28;20083;-75
2024/01/26 13:28:31;;;;;;;1.40;0.50;;;;;;;;;;5035341;28;20037;-75
2024/01/26 13:30:57;;;;;;;0.50;0.40;;;;;;;;;;5021734;28;20570;-75
2024/01/26 13:33:24;;;;;;;2.67;0.55;;;;;;;;;;5031850;28;20128;-75
2024/01/26 13:35:50;;;;;;;1.83;0.70;;;;;;;;;;5029431;28;20596;-75
2024/01/26 13:38:15;;;;;;;1.20;1.08;;;;;;;;;;5029600;28;20041;-75
2024/01/26 13:40:41;;;;;;;1.50;0.80;;;;;;;;;;5035679;28;20052;-75
2024/01/26 13:43:06;;;;;;;0.70;0.70;;;;;;;;;;5025883;28;20099;-75
2024/01/26 13:45:32;;;;;;;0.70;0.70;;;;;;;;;;5018797;28;20036;-75
2024/01/26 13:48:04;;;;;;;10.02;1.40;;;;;;;;;;5034714;28;20124;-75
2024/01/26 13:50:31;;;;;;;0.45;0.30;;;;;;;;;;5035083;28;20037;-75
2024/01/26 13:52:56;;;;;;;0.50;0.40;;;;;;;;;;5036890;28;20465;-75
2024/01/26 13:55:22;;;;;;;0.60;0.40;;;;;;;;;;5028469;28;20037;-75
2024/01/26 13:57:47;;;;;;;0.43;0.30;;;;;;;;;;5033347;28;20402;-75
2024/01/26 14:00:15;;;;;;;0.30;0.30;;;;;;;;;;5024949;28;20106;-75
2024/01/26 14:02:40;;;;;;;0.40;0.35;;;;;;;;;;5018656;28;20033;-75
2024/01/26 14:05:06;;;;;;;0.77;0.38;;;;;;;;;;5031923;28;20568;-75
2024/01/26 14:07:31;;;;;;;0.40;0.40;;;;;;;;;;5025022;28;20513;-75
2024/01/26 14:09:58;;;;;;;1.08;0.30;;;;;;;;;;5033221;28;20135;-74
2024/01/26 14:12:23;;;;;;;1.65;0.50;;;;;;;;;;5035571;28;20513;-75
2024/01/26 14:14:48;;;;;;;0.55;0.47;;;;;;;;;;5006270;28;20079;-75
2024/01/26 14:17:16;;;;;;;1.52;0.47;;;;;;;;;;5020517;28;20068;-75
2024/01/26 14:19:41;;;;;;;2.58;0.45;;;;;;;;;;5019441;28;20498;-75
2024/01/26 14:22:07;;;;;;;2.60;0.40;;;;;;;;;;5021788;28;20052;-75
2024/01/26 14:24:33;;;;;;;2.22;0.40;;;;;;;;;;5019071;28;20685;-75
2024/01/26 14:26:58;;;;;;;1.40;0.60;;;;;;;;;;5032156;28;20037;-75
2024/01/26 14:29:24;;;;;;;1.45;0.60;;;;;;;;;;5003867;28;20046;-75
2024/01/26 14:31:52;;;;;;;1.17;0.40;;;;;;;;;;5028135;28;20119;-75
2024/01/26 14:34:17;;;;;;;0.43;0.28;;;;;;;;;;5025265;28;20057;-75